sensor_id;sensor_type;location;lat;lon;timestamp;temperature;humidity
4215;DHT22;2121;48.062;7.850;2023-04-01T00:00:58;8.30;99.90
4215;DHT22;2121;48.062;7.850;2023-04-01T00:03:27;8.10;99.90
4215;DHT22;2121;48.062;7.850;2023-04-01T00:05:54;7.90;99.90
4215;DHT22;2121;48.062;7.850;2023-04-01T00:08:21;7.80;99.90
4215;DHT22;2121;48.062;7.850;2023-04-01T00:10:47;7.80;99.90
4215;DHT22;2121;48.062;7.850;2023-04-01T00:13:13;7.60;99.90
4215;DHT22;2121;48.062;7.850;2023-04-01T00:15:40;7.50;99.90
4215;DHT22;2121;48.062;7.850;2023-04-01T00:18:06;7.50;99.90
4215;DHT22;2121;48.062;7.850;2023-04-01T00:20:33;7.40;99.90
4215;DHT22;2121;48.062;7.850;2023-04-01T00:22:59;7.40;99.90
4215;DHT22;2121;48.062;7.850;2023-04-01T00:25:24;7.40;99.90
4215;DHT22;2121;48.062;7.850;2023-04-01T00:27:50;7.40;99.90
4215;DHT22;2121;48.062;7.850;2023-04-01T00:30:16;7.30;99.90
4215;DHT22;2121;48.062;7.850;2023-04-01T00:32:42;7.30;99.90
4215;DHT22;2121;48.062;7.850;2023-04-01T00:35:08;7.30;99.90
4215;DHT22;2121;48.062;7.850;2023-04-01T00:37:35;7.40;99.90
4215;DHT22;2121;48.062;7.850;2023-04-01T00:40:04;7.30;99.90
4215;DHT22;2121;48.062;7.850;2023-04-01T00:42:31;7.40;99.90
4215;DHT22;2121;48.062;7.850;2023-04-01T00:44:58;7.50;99.90
4215;DHT22;2121;48.062;7.850;2023-04-01T00:47:25;7.50;99.90
4215;DHT22;2121;48.062;7.850;2023-04-01T00:49:53;7.60;99.90
4215;DHT22;2121;48.062;7.850;2023-04-01T00:52:22;7.60;99.90
4215;DHT22;2121;48.062;7.850;2023-04-01T00:54:54;7.60;99.90
4215;DHT22;2121;48.062;7.850;2023-04-01T00:57:32;7.60;99.90
4215;DHT22;2121;48.062;7.850;2023-04-01T01:00:06;7.70;99.90
4215;DHT22;2121;48.062;7.850;2023-04-01T01:02:36;7.60;99.90
4215;DHT22;2121;48.062;7.850;2023-04-01T01:05:02;7.70;99.90
4215;DHT22;2121;48.062;7.850;2023-04-01T01:10:39;7.70;99.90
4215;DHT22;2121;48.062;7.850;2023-04-01T01:16:00;7.60;99.90
4215;DHT22;2121;48.062;7.850;2023-04-01T01:19:48;7.60;99.90
4215;DHT22;2121;48.062;7.850;2023-04-01T01:27:34;7.60;99.90
4215;DHT22;2121;48.062;7.850;2023-04-01T01:33:16;7.70;99.90
4215;DHT22;2121;48.062;7.850;2023-04-01T01:35:50;7.70;99.90
4215;DHT22;2121;48.062;7.850;2023-04-01T01:38:22;7.70;99.90
4215;DHT22;2121;48.062;7.850;2023-04-01T01:40:51;7.80;99.90
4215;DHT22;2121;48.062;7.850;2023-04-01T01:43:24;7.80;99.90
4215;DHT22;2121;48.062;7.850;2023-04-01T01:45:55;7.90;99.90
4215;DHT22;2121;48.062;7.850;2023-04-01T01:48:24;7.90;99.90
4215;DHT22;2121;48.062;7.850;2023-04-01T01:50:52;7.90;99.90
4215;DHT22;2121;48.062;7.850;2023-04-01T01:53:19;8.00;99.90
4215;DHT22;2121;48.062;7.850;2023-04-01T01:55:46;8.00;99.90
4215;DHT22;2121;48.062;7.850;2023-04-01T01:58:20;8.00;99.90
4215;DHT22;2121;48.062;7.850;2023-04-01T02:01:14;8.10;99.90
4215;DHT22;2121;48.062;7.850;2023-04-01T02:03:42;8.10;99.90
4215;DHT22;2121;48.062;7.850;2023-04-01T02:06:13;8.10;99.90
4215;DHT22;2121;48.062;7.850;2023-04-01T02:08:47;8.20;99.90
4215;DHT22;2121;48.062;7.850;2023-04-01T02:11:16;8.20;99.90
4215;DHT22;2121;48.062;7.850;2023-04-01T02:13:53;8.30;99.90
4215;DHT22;2121;48.062;7.850;2023-04-01T02:16:28;8.40;99.90
4215;DHT22;2121;48.062;7.850;2023-04-01T02:19:07;8.50;99.90
4215;DHT22;2121;48.062;7.850;2023-04-01T02:21:35;8.60;99.90
4215;DHT22;2121;48.062;7.850;2023-04-01T02:24:04;8.60;99.90
4215;DHT22;2121;48.062;7.850;2023-04-01T02:26:31;8.70;99.90
4215;DHT22;2121;48.062;7.850;2023-04-01T02:28:59;8.70;99.90
4215;DHT22;2121;48.062;7.850;2023-04-01T02:31:26;8.50;99.90
4215;DHT22;2121;48.062;7.850;2023-04-01T02:33:53;8.40;99.90
4215;DHT22;2121;48.062;7.850;2023-04-01T02:36:20;8.20;99.90
4215;DHT22;2121;48.062;7.850;2023-04-01T02:38:46;8.10;99.90
4215;DHT22;2121;48.062;7.850;2023-04-01T02:41:14;8.00;99.90
4215;DHT22;2121;48.062;7.850;2023-04-01T02:43:40;8.00;99.90
4215;DHT22;2121;48.062;7.850;2023-04-01T02:46:06;8.00;99.90
4215;DHT22;2121;48.062;7.850;2023-04-01T02:48:32;7.90;99.90
4215;DHT22;2121;48.062;7.850;2023-04-01T02:50:57;7.90;99.90
4215;DHT22;2121;48.062;7.850;2023-04-01T02:53:23;7.90;99.90
4215;DHT22;2121;48.062;7.850;2023-04-01T02:55:49;7.90;99.90
4215;DHT22;2121;48.062;7.850;2023-04-01T02:58:18;7.90;99.90
4215;DHT22;2121;48.062;7.850;2023-04-01T03:00:44;7.90;99.90
4215;DHT22;2121;48.062;7.850;2023-04-01T03:03:10;7.90;99.90
4215;DHT22;2121;48.062;7.850;2023-04-01T03:05:35;7.80;99.90
4215;DHT22;2121;48.062;7.850;2023-04-01T03:08:02;7.80;99.90
4215;DHT22;2121;48.062;7.850;2023-04-01T03:10:28;7.70;99.90
4215;DHT22;2121;48.062;7.850;2023-04-01T03:12:53;7.60;99.90
4215;DHT22;2121;48.062;7.850;2023-04-01T03:15:19;7.60;99.90
4215;DHT22;2121;48.062;7.850;2023-04-01T03:17:45;7.60;99.90
4215;DHT22;2121;48.062;7.850;2023-04-01T03:20:12;7.60;99.90
4215;DHT22;2121;48.062;7.850;2023-04-01T03:22:38;7.60;99.90
4215;DHT22;2121;48.062;7.850;2023-04-01T03:25:05;7.60;99.90
4215;DHT22;2121;48.062;7.850;2023-04-01T03:27:33;7.70;99.90
4215;DHT22;2121;48.062;7.850;2023-04-01T03:30:02;7.70;99.90
4215;DHT22;2121;48.062;7.850;2023-04-01T03:32:31;7.60;99.90
4215;DHT22;2121;48.062;7.850;2023-04-01T03:34:57;7.60;99.90
4215;DHT22;2121;48.062;7.850;2023-04-01T03:37:24;7.50;99.90
4215;DHT22;2121;48.062;7.850;2023-04-01T03:39:50;7.60;99.90
4215;DHT22;2121;48.062;7.850;2023-04-01T03:42:16;7.50;99.90
4215;DHT22;2121;48.062;7.850;2023-04-01T03:44:41;7.50;99.90
4215;DHT22;2121;48.062;7.850;2023-04-01T03:47:07;7.50;99.90
4215;DHT22;2121;48.062;7.850;2023-04-01T03:49:34;7.50;99.90
4215;DHT22;2121;48.062;7.850;2023-04-01T03:52:00;7.50;99.90
4215;DHT22;2121;48.062;7.850;2023-04-01T03:54:26;7.40;99.90
4215;DHT22;2121;48.062;7.850;2023-04-01T03:56:52;7.50;99.90
4215;DHT22;2121;48.062;7.850;2023-04-01T03:59:18;7.40;99.90
4215;DHT22;2121;48.062;7.850;2023-04-01T04:01:43;7.40;99.90
4215;DHT22;2121;48.062;7.850;2023-04-01T04:04:12;7.40;99.90
4215;DHT22;2121;48.062;7.850;2023-04-01T04:06:40;7.40;99.90
4215;DHT22;2121;48.062;7.850;2023-04-01T04:09:07;7.40;99.90
4215;DHT22;2121;48.062;7.850;2023-04-01T04:11:32;7.40;99.90
4215;DHT22;2121;48.062;7.850;2023-04-01T04:13:59;7.40;99.90
4215;DHT22;2121;48.062;7.850;2023-04-01T04:16:25;7.50;99.90
4215;DHT22;2121;48.062;7.850;2023-04-01T04:18:50;7.50;99.90
4215;DHT22;2121;48.062;7.850;2023-04-01T04:21:17;7.50;99.90
4215;DHT22;2121;48.062;7.850;2023-04-01T04:23:43;7.60;99.90
4215;DHT22;2121;48.062;7.850;2023-04-01T04:26:11;7.60;99.90
4215;DHT22;2121;48.062;7.850;2023-04-01T04:28:38;7.60;99.90
4215;DHT22;2121;48.062;7.850;2023-04-01T04:31:04;7.70;99.90
4215;DHT22;2121;48.062;7.850;2023-04-01T04:33:31;7.70;99.90
4215;DHT22;2121;48.062;7.850;2023-04-01T04:35:58;7.70;99.90
4215;DHT22;2121;48.062;7.850;2023-04-01T04:38:26;7.80;99.90
4215;DHT22;2121;48.062;7.850;2023-04-01T04:40:52;7.90;99.90
4215;DHT22;2121;48.062;7.850;2023-04-01T04:43:18;7.90;99.90
4215;DHT22;2121;48.062;7.850;2023-04-01T04:45:44;8.00;99.90
4215;DHT22;2121;48.062;7.850;2023-04-01T04:48:13;8.00;99.90
4215;DHT22;2121;48.062;7.850;2023-04-01T04:50:47;8.00;99.90
4215;DHT22;2121;48.062;7.850;2023-04-01T04:53:15;8.00;99.90
4215;DHT22;2121;48.062;7.850;2023-04-01T04:55:49;7.90;99.90
4215;DHT22;2121;48.062;7.850;2023-04-01T04:58:15;7.90;99.90
4215;DHT22;2121;48.062;7.850;2023-04-01T05:00:42;7.90;99.90
4215;DHT22;2121;48.062;7.850;2023-04-01T05:03:08;7.80;99.90
4215;DHT22;2121;48.062;7.850;2023-04-01T05:05:34;7.80;99.90
4215;DHT22;2121;48.062;7.850;2023-04-01T05:08:00;7.80;99.90
4215;DHT22;2121;48.062;7.850;2023-04-01T05:10:26;7.80;99.90
4215;DHT22;2121;48.062;7.850;2023-04-01T05:12:52;7.90;99.90
4215;DHT22;2121;48.062;7.850;2023-04-01T05:15:18;7.80;99.90
4215;DHT22;2121;48.062;7.850;2023-04-01T05:17:44;7.80;99.90
4215;DHT22;2121;48.062;7.850;2023-04-01T05:20:12;7.90;99.90
4215;DHT22;2121;48.062;7.850;2023-04-01T05:22:38;8.00;99.90
4215;DHT22;2121;48.062;7.850;2023-04-01T05:25:05;8.10;99.90
4215;DHT22;2121;48.062;7.850;2023-04-01T05:27:32;8.10;99.90
4215;DHT22;2121;48.062;7.850;2023-04-01T05:29:58;8.10;99.90
4215;DHT22;2121;48.062;7.850;2023-04-01T05:32:23;8.20;99.90
4215;DHT22;2121;48.062;7.850;2023-04-01T05:34:53;8.20;99.90
4215;DHT22;2121;48.062;7.850;2023-04-01T05:37:19;8.30;99.90
4215;DHT22;2121;48.062;7.850;2023-04-01T05:39:45;8.30;99.90
4215;DHT22;2121;48.062;7.850;2023-04-01T05:42:11;8.30;99.90
4215;DHT22;2121;48.062;7.850;2023-04-01T05:44:37;8.30;99.90
4215;DHT22;2121;48.062;7.850;2023-04-01T05:47:04;8.30;99.90
4215;DHT22;2121;48.062;7.850;2023-04-01T05:49:30;8.40;99.90
4215;DHT22;2121;48.062;7.850;2023-04-01T05:51:56;8.40;99.90
4215;DHT22;2121;48.062;7.850;2023-04-01T05:54:22;8.40;99.90
4215;DHT22;2121;48.062;7.850;2023-04-01T05:56:48;8.40;99.90
4215;DHT22;2121;48.062;7.850;2023-04-01T05:59:14;8.50;99.90
4215;DHT22;2121;48.062;7.850;2023-04-01T06:01:39;8.50;99.90
4215;DHT22;2121;48.062;7.850;2023-04-01T06:04:05;8.50;99.90
4215;DHT22;2121;48.062;7.850;2023-04-01T06:06:32;8.50;99.90
4215;DHT22;2121;48.062;7.850;2023-04-01T06:09:06;8.60;99.90
4215;DHT22;2121;48.062;7.850;2023-04-01T06:26:39;8.80;99.90
4215;DHT22;2121;48.062;7.850;2023-04-01T06:38:20;8.90;99.90
4215;DHT22;2121;48.062;7.850;2023-04-01T06:41:21;8.90;99.90
4215;DHT22;2121;48.062;7.850;2023-04-01T06:44:11;8.90;99.90
4215;DHT22;2121;48.062;7.850;2023-04-01T06:46:48;9.00;99.90
4215;DHT22;2121;48.062;7.850;2023-04-01T06:55:47;9.10;99.90
4215;DHT22;2121;48.062;7.850;2023-04-01T06:58:30;9.20;99.90
4215;DHT22;2121;48.062;7.850;2023-04-01T07:01:03;9.30;99.90
4215;DHT22;2121;48.062;7.850;2023-04-01T07:06:19;9.30;99.90
4215;DHT22;2121;48.062;7.850;2023-04-01T07:08:53;9.30;99.90
4215;DHT22;2121;48.062;7.850;2023-04-01T07:11:38;9.40;99.90
4215;DHT22;2121;48.062;7.850;2023-04-01T07:17:36;9.40;99.90
4215;DHT22;2121;48.062;7.850;2023-04-01T07:20:29;9.40;99.90
4215;DHT22;2121;48.062;7.850;2023-04-01T07:22:58;9.50;99.90
4215;DHT22;2121;48.062;7.850;2023-04-01T07:25:31;9.60;99.90
4215;DHT22;2121;48.062;7.850;2023-04-01T07:28:06;9.50;99.90
4215;DHT22;2121;48.062;7.850;2023-04-01T07:39:48;9.50;99.90
4215;DHT22;2121;48.062;7.850;2023-04-01T07:42:27;9.50;99.90
4215;DHT22;2121;48.062;7.850;2023-04-01T07:45:18;9.50;99.90
4215;DHT22;2121;48.062;7.850;2023-04-01T07:51:08;9.40;99.90
4215;DHT22;2121;48.062;7.850;2023-04-01T07:54:03;9.50;99.90
4215;DHT22;2121;48.062;7.850;2023-04-01T08:05:29;9.60;99.90
4215;DHT22;2121;48.062;7.850;2023-04-01T08:13:35;9.70;99.90
4215;DHT22;2121;48.062;7.850;2023-04-01T08:16:26;9.80;99.90
4215;DHT22;2121;48.062;7.850;2023-04-01T08:21:52;9.90;99.90
4215;DHT22;2121;48.062;7.850;2023-04-01T08:27:06;9.80;99.90
4215;DHT22;2121;48.062;7.850;2023-04-01T08:30:17;9.90;99.90
4215;DHT22;2121;48.062;7.850;2023-04-01T08:33:12;9.90;99.90
4215;DHT22;2121;48.062;7.850;2023-04-01T08:35:54;9.90;99.90
4215;DHT22;2121;48.062;7.850;2023-04-01T08:41:31;9.80;99.90
4215;DHT22;2121;48.062;7.850;2023-04-01T09:18:20;10.00;99.90
4215;DHT22;2121;48.062;7.850;2023-04-01T09:30:40;10.00;99.90
4215;DHT22;2121;48.062;7.850;2023-04-01T09:33:33;9.70;99.90
4215;DHT22;2121;48.062;7.850;2023-04-01T09:45:18;9.80;99.90
4215;DHT22;2121;48.062;7.850;2023-04-01T09:50:53;10.00;99.90
4215;DHT22;2121;48.062;7.850;2023-04-01T09:53:36;10.10;99.90
4215;DHT22;2121;48.062;7.850;2023-04-01T10:42:00;10.70;99.90
4215;DHT22;2121;48.062;7.850;2023-04-01T10:54:05;10.80;99.90
4215;DHT22;2121;48.062;7.850;2023-04-01T10:56:47;10.70;99.90
4215;DHT22;2121;48.062;7.850;2023-04-01T11:26:06;10.60;99.90
4215;DHT22;2121;48.062;7.850;2023-04-01T11:28:57;10.80;99.90
4215;DHT22;2121;48.062;7.850;2023-04-01T11:31:57;10.70;99.90
4215;DHT22;2121;48.062;7.850;2023-04-01T11:34:39;10.70;99.90
4215;DHT22;2121;48.062;7.850;2023-04-01T11:56:48;10.70;99.90
4215;DHT22;2121;48.062;7.850;2023-04-01T12:11:17;10.90;99.90
4215;DHT22;2121;48.062;7.850;2023-04-01T12:14:06;10.90;99.90
4215;DHT22;2121;48.062;7.850;2023-04-01T12:16:51;10.80;99.90
4215;DHT22;2121;48.062;7.850;2023-04-01T12:22:53;10.90;99.90
4215;DHT22;2121;48.062;7.850;2023-04-01T12:25:59;10.90;99.90
4215;DHT22;2121;48.062;7.850;2023-04-01T12:31:58;11.00;99.90
4215;DHT22;2121;48.062;7.850;2023-04-01T12:37:55;11.10;99.90
4215;DHT22;2121;48.062;7.850;2023-04-01T12:58:23;11.20;99.90
4215;DHT22;2121;48.062;7.850;2023-04-01T13:04:24;11.30;99.90
4215;DHT22;2121;48.062;7.850;2023-04-01T13:15:53;11.20;99.90
4215;DHT22;2121;48.062;7.850;2023-04-01T13:21:26;11.30;99.90
4215;DHT22;2121;48.062;7.850;2023-04-01T13:30:37;11.40;99.90
4215;DHT22;2121;48.062;7.850;2023-04-01T13:33:35;11.50;99.90
4215;DHT22;2121;48.062;7.850;2023-04-01T13:36:24;11.60;99.90
4215;DHT22;2121;48.062;7.850;2023-04-01T13:39:10;11.70;99.90
4215;DHT22;2121;48.062;7.850;2023-04-01T13:42:28;11.70;99.90
4215;DHT22;2121;48.062;7.850;2023-04-01T14:06:28;12.50;99.90
4215;DHT22;2121;48.062;7.850;2023-04-01T14:12:36;13.20;99.90
4215;DHT22;2121;48.062;7.850;2023-04-01T14:15:26;13.50;99.90
4215;DHT22;2121;48.062;7.850;2023-04-01T14:18:33;13.50;99.90
4215;DHT22;2121;48.062;7.850;2023-04-01T14:23:58;14.00;99.90
4215;DHT22;2121;48.062;7.850;2023-04-01T14:43:56;14.40;99.90
4215;DHT22;2121;48.062;7.850;2023-04-01T14:51:43;14.00;99.90
4215;DHT22;2121;48.062;7.850;2023-04-01T14:59:30;13.40;99.90
4215;DHT22;2121;48.062;7.850;2023-04-01T15:05:16;14.00;99.90
4215;DHT22;2121;48.062;7.850;2023-04-01T15:08:23;15.20;99.90
4215;DHT22;2121;48.062;7.850;2023-04-01T15:19:29;15.30;99.70
4215;DHT22;2121;48.062;7.850;2023-04-01T15:37:32;13.70;99.90
4215;DHT22;2121;48.062;7.850;2023-04-01T15:43:47;12.50;99.90
4215;DHT22;2121;48.062;7.850;2023-04-01T16:11:28;9.70;99.90
4215;DHT22;2121;48.062;7.850;2023-04-01T16:19:49;10.00;99.90
4215;DHT22;2121;48.062;7.850;2023-04-01T16:22:37;10.40;99.90
4215;DHT22;2121;48.062;7.850;2023-04-01T16:26:08;12.90;99.90
4215;DHT22;2121;48.062;7.850;2023-04-01T16:28:55;15.10;99.90
4215;DHT22;2121;48.062;7.850;2023-04-01T16:37:53;12.70;99.90
4215;DHT22;2121;48.062;7.850;2023-04-01T16:46:21;12.60;99.90
4215;DHT22;2121;48.062;7.850;2023-04-01T16:49:27;12.40;99.90
4215;DHT22;2121;48.062;7.850;2023-04-01T16:57:35;11.90;99.90
4215;DHT22;2121;48.062;7.850;2023-04-01T17:12:02;12.50;99.90
4215;DHT22;2121;48.062;7.850;2023-04-01T17:18:14;12.00;99.90
4215;DHT22;2121;48.062;7.850;2023-04-01T17:21:10;11.90;99.90
4215;DHT22;2121;48.062;7.850;2023-04-01T17:23:52;12.00;99.90
4215;DHT22;2121;48.062;7.850;2023-04-01T17:41:53;11.90;99.90
4215;DHT22;2121;48.062;7.850;2023-04-01T18:10:28;10.00;99.90
4215;DHT22;2121;48.062;7.850;2023-04-01T18:21:49;9.70;99.90
4215;DHT22;2121;48.062;7.850;2023-04-01T18:24:40;9.70;99.90
4215;DHT22;2121;48.062;7.850;2023-04-01T18:29:40;9.50;99.90
4215;DHT22;2121;48.062;7.850;2023-04-01T18:32:35;9.50;99.90
4215;DHT22;2121;48.062;7.850;2023-04-01T18:38:37;9.50;99.90
4215;DHT22;2121;48.062;7.850;2023-04-01T18:41:40;9.40;99.90
4215;DHT22;2121;48.062;7.850;2023-04-01T18:47:05;9.20;99.90
4215;DHT22;2121;48.062;7.850;2023-04-01T18:52:41;9.10;99.90
4215;DHT22;2121;48.062;7.850;2023-04-01T18:55:37;9.10;99.90
4215;DHT22;2121;48.062;7.850;2023-04-01T18:58:46;9.10;99.90
4215;DHT22;2121;48.062;7.850;2023-04-01T19:01:26;9.10;99.90
4215;DHT22;2121;48.062;7.850;2023-04-01T19:04:08;9.10;99.90
4215;DHT22;2121;48.062;7.850;2023-04-01T19:06:57;9.00;99.90
4215;DHT22;2121;48.062;7.850;2023-04-01T19:26:42;9.00;99.90
4215;DHT22;2121;48.062;7.850;2023-04-01T19:29:17;9.00;99.90
4215;DHT22;2121;48.062;7.850;2023-04-01T19:34:53;8.80;99.90
4215;DHT22;2121;48.062;7.850;2023-04-01T19:37:40;8.80;99.90
4215;DHT22;2121;48.062;7.850;2023-04-01T19:40:49;8.80;99.90
4215;DHT22;2121;48.062;7.850;2023-04-01T19:43:44;8.80;99.90
4215;DHT22;2121;48.062;7.850;2023-04-01T19:46:44;9.00;99.90
4215;DHT22;2121;48.062;7.850;2023-04-01T19:52:09;9.10;99.90
4215;DHT22;2121;48.062;7.850;2023-04-01T19:55:22;9.00;99.90
4215;DHT22;2121;48.062;7.850;2023-04-01T19:58:23;8.90;99.90
4215;DHT22;2121;48.062;7.850;2023-04-01T20:00:53;8.80;99.90
4215;DHT22;2121;48.062;7.850;2023-04-01T20:03:49;8.90;99.90
4215;DHT22;2121;48.062;7.850;2023-04-01T20:14:56;8.90;99.90
4215;DHT22;2121;48.062;7.850;2023-04-01T20:17:31;8.90;99.90
4215;DHT22;2121;48.062;7.850;2023-04-01T20:25:30;9.00;99.90
4215;DHT22;2121;48.062;7.850;2023-04-01T20:31:09;9.10;99.90
4215;DHT22;2121;48.062;7.850;2023-04-01T20:34:03;9.10;99.90
4215;DHT22;2121;48.062;7.850;2023-04-01T20:50:37;9.40;99.90
4215;DHT22;2121;48.062;7.850;2023-04-01T21:01:30;9.50;99.90
4215;DHT22;2121;48.062;7.850;2023-04-01T21:04:30;9.60;99.90
4215;DHT22;2121;48.062;7.850;2023-04-01T21:31:00;8.70;99.90
4215;DHT22;2121;48.062;7.850;2023-04-01T22:02:41;8.90;99.90
4215;DHT22;2121;48.062;7.850;2023-04-01T22:05:34;8.90;99.90
4215;DHT22;2121;48.062;7.850;2023-04-01T22:10:53;8.80;99.90
4215;DHT22;2121;48.062;7.850;2023-04-01T22:16:58;8.90;99.90
4215;DHT22;2121;48.062;7.850;2023-04-01T22:20:03;8.80;99.90
4215;DHT22;2121;48.062;7.850;2023-04-01T22:22:52;8.80;99.90
4215;DHT22;2121;48.062;7.850;2023-04-01T22:28:11;8.80;99.90
4215;DHT22;2121;48.062;7.850;2023-04-01T22:30:45;8.80;99.90
4215;DHT22;2121;48.062;7.850;2023-04-01T22:33:22;8.80;99.90
4215;DHT22;2121;48.062;7.850;2023-04-01T22:38:54;8.70;99.90
4215;DHT22;2121;48.062;7.850;2023-04-01T22:45:03;8.60;99.90
4215;DHT22;2121;48.062;7.850;2023-04-01T22:48:05;8.40;99.90
4215;DHT22;2121;48.062;7.850;2023-04-01T22:54:23;8.20;99.90
4215;DHT22;2121;48.062;7.850;2023-04-01T22:57:08;8.20;99.90
4215;DHT22;2121;48.062;7.850;2023-04-01T22:59:51;8.10;99.90
4215;DHT22;2121;48.062;7.850;2023-04-01T23:02:29;8.00;99.90
4215;DHT22;2121;48.062;7.850;2023-04-01T23:05:00;8.00;99.90
4215;DHT22;2121;48.062;7.850;2023-04-01T23:07:56;8.00;99.90
4215;DHT22;2121;48.062;7.850;2023-04-01T23:10:53;7.90;99.90
4215;DHT22;2121;48.062;7.850;2023-04-01T23:13:29;7.90;99.90
4215;DHT22;2121;48.062;7.850;2023-04-01T23:15:59;8.00;99.90
4215;DHT22;2121;48.062;7.850;2023-04-01T23:24:15;8.00;99.90
4215;DHT22;2121;48.062;7.850;2023-04-01T23:27:08;8.00;99.90
4215;DHT22;2121;48.062;7.850;2023-04-01T23:29:38;8.00;99.90
4215;DHT22;2121;48.062;7.850;2023-04-01T23:32:18;7.90;99.90
4215;DHT22;2121;48.062;7.850;2023-04-01T23:34:50;7.90;99.90
4215;DHT22;2121;48.062;7.850;2023-04-01T23:37:22;7.90;99.90
4215;DHT22;2121;48.062;7.850;2023-04-01T23:39:54;7.90;99.90
4215;DHT22;2121;48.062;7.850;2023-04-01T23:44:55;8.00;99.90
4215;DHT22;2121;48.062;7.850;2023-04-01T23:47:24;8.00;99.90
4215;DHT22;2121;48.062;7.850;2023-04-01T23:50:03;8.00;99.90
4215;DHT22;2121;48.062;7.850;2023-04-01T23:52:39;8.00;99.90
4215;DHT22;2121;48.062;7.850;2023-04-01T23:55:23;8.00;99.90
4215;DHT22;2121;48.062;7.850;2023-04-01T23:58:38;8.10;99.90
